createdAt,value
2022-10-08T00:01:07.091Z,10.10
2022-10-08T00:03:37.725Z,9.20
2022-10-08T00:06:12.427Z,8.93
2022-10-08T00:08:41.675Z,8.95
2022-10-08T00:11:11.183Z,7.85
2022-10-08T00:13:40.992Z,7.50
2022-10-08T00:16:12.660Z,6.47
2022-10-08T00:18:44.858Z,6.38
2022-10-08T00:23:44.709Z,5.47
2022-10-08T00:26:11.506Z,5.68
2022-10-08T00:28:41.966Z,5.70
2022-10-08T00:31:11.483Z,5.53
2022-10-08T00:33:38.561Z,5.25
2022-10-08T00:36:08.160Z,6.50
2022-10-08T00:38:35.859Z,5.65
2022-10-08T00:41:05.618Z,5.38
2022-10-08T00:43:45.501Z,6.00
2022-10-08T00:46:25.315Z,5.28
2022-10-08T00:49:11.580Z,6.25
2022-10-08T00:51:44.103Z,7.10
2022-10-08T00:54:12.986Z,7.47
2022-10-08T00:56:41.295Z,8.00
2022-10-08T00:59:10.979Z,6.95
2022-10-08T01:01:41.191Z,5.60
2022-10-08T01:04:09.333Z,5.88
2022-10-08T01:06:42.630Z,6.47
2022-10-08T01:09:19.100Z,6.57
2022-10-08T01:12:18.605Z,5.57
2022-10-08T01:15:01.762Z,6.05
2022-10-08T01:17:37.498Z,6.90
2022-10-08T01:20:13.283Z,6.10
2022-10-08T01:22:52.348Z,5.50
2022-10-08T01:25:35.527Z,4.90
2022-10-08T01:28:19.792Z,5.35
2022-10-08T01:30:59.578Z,5.10
2022-10-08T01:33:35.723Z,4.85
2022-10-08T01:36:05.164Z,4.45
2022-10-08T01:38:35.744Z,4.60
2022-10-08T01:41:08.235Z,4.25
2022-10-08T01:43:40.436Z,4.82
2022-10-08T01:46:22.381Z,6.38
2022-10-08T01:48:51.998Z,5.18
2022-10-08T01:51:27.339Z,4.93
2022-10-08T01:53:55.309Z,4.65
2022-10-08T01:56:27.047Z,4.90
2022-10-08T01:59:03.737Z,5.10
2022-10-08T02:02:01.467Z,5.78
2022-10-08T02:04:33.840Z,5.75
2022-10-08T02:07:15.348Z,5.47
2022-10-08T02:09:48.037Z,4.80
2022-10-08T02:12:14.938Z,4.97
2022-10-08T02:14:47.104Z,5.30
2022-10-08T02:17:33.046Z,4.85
2022-10-08T02:20:02.833Z,5.70
2022-10-08T02:22:45.601Z,5.70
2022-10-08T02:28:28.326Z,5.75
2022-10-08T02:31:04.908Z,6.53
2022-10-08T02:33:37.889Z,6.38
2022-10-08T02:36:08.172Z,6.80
2022-10-08T02:38:41.261Z,6.93
2022-10-08T02:41:11.385Z,7.70
2022-10-08T02:43:45.227Z,8.23
2022-10-08T02:46:17.736Z,8.05
2022-10-08T02:48:51.087Z,6.70
2022-10-08T02:51:18.772Z,6.93
2022-10-08T02:53:47.576Z,8.45
2022-10-08T02:56:37.724Z,7.47
2022-10-08T02:59:05.592Z,7.00
2022-10-08T03:01:48.808Z,7.40
2022-10-08T03:04:26.039Z,6.53
2022-10-08T03:06:54.157Z,6.72
2022-10-08T03:09:22.781Z,8.15
2022-10-08T03:11:50.327Z,8.43
2022-10-08T03:14:20.297Z,8.40
2022-10-08T03:16:48.174Z,8.85
2022-10-08T03:19:16.722Z,10.38
2022-10-08T03:21:45.534Z,9.02
2022-10-08T03:24:14.521Z,9.63
2022-10-08T03:26:41.715Z,10.27
2022-10-08T03:29:09.171Z,9.98
2022-10-08T03:31:36.250Z,10.32
2022-10-08T03:34:02.992Z,9.25
2022-10-08T03:36:30.433Z,9.40
2022-10-08T03:38:57.472Z,10.40
2022-10-08T03:41:25.503Z,10.98
2022-10-08T03:43:52.337Z,10.30
2022-10-08T03:46:19.340Z,10.25
2022-10-08T03:48:49.683Z,10.23
2022-10-08T03:51:18.374Z,9.80
2022-10-08T03:53:45.912Z,9.27
2022-10-08T03:56:15.465Z,10.57
2022-10-08T03:58:43.021Z,9.93
2022-10-08T04:01:17.791Z,9.85
2022-10-08T04:03:45.451Z,11.40
2022-10-08T04:06:12.696Z,9.75
2022-10-08T04:08:40.092Z,10.52
2022-10-08T04:11:10.110Z,9.70
2022-10-08T04:13:38.125Z,10.32
2022-10-08T04:16:10.856Z,9.23
2022-10-08T04:18:38.034Z,9.32
2022-10-08T04:21:08.491Z,9.05
2022-10-08T04:23:37.912Z,9.68
2022-10-08T04:26:05.329Z,8.82
2022-10-08T04:28:37.547Z,9.57
2022-10-08T04:31:08.625Z,10.60
2022-10-08T04:33:36.437Z,10.20
2022-10-08T04:36:12.063Z,9.55
2022-10-08T04:38:39.331Z,9.73
2022-10-08T04:41:06.797Z,10.75
2022-10-08T04:43:35.335Z,10.23
2022-10-08T04:46:03.183Z,9.70
2022-10-08T04:48:30.362Z,10.48
2022-10-08T04:50:59.172Z,10.38
2022-10-08T04:53:26.965Z,9.45
2022-10-08T04:55:55.167Z,10.95
2022-10-08T04:58:23.339Z,10.35
2022-10-08T05:00:50.727Z,10.63
2022-10-08T05:03:17.801Z,9.68
2022-10-08T05:05:46.459Z,9.65
2022-10-08T05:08:13.871Z,10.32
2022-10-08T05:10:48.366Z,10.02
2022-10-08T05:13:15.389Z,8.88
2022-10-08T05:15:42.458Z,9.70
2022-10-08T05:18:10.289Z,9.15
2022-10-08T05:20:38.040Z,9.13
2022-10-08T05:23:05.115Z,9.73
2022-10-08T05:25:33.482Z,9.00
2022-10-08T05:28:01.573Z,9.13
2022-10-08T05:30:28.425Z,10.05
2022-10-08T05:32:55.433Z,9.43
2022-10-08T05:35:22.447Z,9.85
2022-10-08T05:37:49.279Z,9.07
2022-10-08T05:40:16.336Z,8.98
2022-10-08T05:42:43.427Z,9.30
2022-10-08T05:45:10.875Z,9.38
2022-10-08T05:47:38.270Z,9.68
2022-10-08T05:50:06.026Z,9.95
2022-10-08T05:52:33.021Z,9.13
2022-10-08T05:55:00.453Z,9.13
2022-10-08T05:57:28.146Z,10.05
2022-10-08T05:59:55.060Z,9.63
2022-10-08T06:02:22.318Z,9.18
2022-10-08T06:04:50.391Z,9.93
2022-10-08T06:07:17.318Z,9.45
2022-10-08T06:09:45.253Z,9.98
2022-10-08T06:12:13.914Z,9.73
2022-10-08T06:14:41.187Z,9.15
2022-10-08T06:17:08.034Z,9.35
2022-10-08T06:19:37.336Z,8.57
2022-10-08T06:22:05.125Z,8.73
2022-10-08T06:24:32.476Z,9.73
2022-10-08T06:26:59.547Z,9.90
2022-10-08T06:29:26.802Z,9.75
2022-10-08T06:31:53.821Z,9.75
2022-10-08T06:34:22.011Z,9.20
2022-10-08T06:36:50.215Z,9.45
2022-10-08T06:39:18.452Z,9.27
2022-10-08T06:41:45.510Z,9.30
2022-10-08T06:44:14.566Z,9.73
2022-10-08T06:46:42.459Z,9.52
2022-10-08T06:49:10.435Z,9.65
2022-10-08T06:51:38.350Z,9.27
2022-10-08T06:54:08.299Z,9.95
2022-10-08T06:56:37.500Z,9.82
2022-10-08T06:59:06.598Z,10.80
2022-10-08T07:01:35.806Z,10.35
2022-10-08T07:04:05.120Z,10.32
2022-10-08T07:06:36.509Z,9.75
2022-10-08T07:09:04.923Z,9.75
2022-10-08T07:11:33.668Z,9.93
2022-10-08T07:14:00.987Z,10.10
2022-10-08T07:16:28.576Z,8.95
2022-10-08T07:18:58.084Z,8.95
2022-10-08T07:21:25.635Z,9.52
2022-10-08T07:23:52.953Z,9.38
2022-10-08T07:26:25.263Z,8.50
2022-10-08T07:28:55.346Z,9.27
2022-10-08T07:31:27.117Z,9.10
2022-10-08T07:33:54.273Z,9.77
2022-10-08T07:36:23.265Z,8.25
2022-10-08T07:39:03.860Z,9.38
2022-10-08T07:41:32.024Z,8.80
2022-10-08T07:44:00.841Z,7.55
2022-10-08T07:46:29.545Z,7.70
2022-10-08T07:48:59.211Z,7.82
2022-10-08T07:51:28.038Z,8.02
2022-10-08T07:54:00.240Z,7.30
2022-10-08T07:56:30.319Z,8.45
2022-10-08T07:58:58.857Z,7.97
2022-10-08T08:01:28.533Z,8.45
2022-10-08T08:04:07.306Z,7.78
2022-10-08T08:06:41.608Z,7.68
2022-10-08T08:09:09.163Z,7.60
2022-10-08T08:11:36.523Z,7.95
2022-10-08T08:14:03.826Z,7.43
2022-10-08T08:16:30.759Z,7.63
2022-10-08T08:19:01.301Z,8.50
2022-10-08T08:21:36.386Z,7.65
2022-10-08T08:24:06.218Z,8.30
2022-10-08T08:26:36.037Z,7.20
2022-10-08T08:29:08.887Z,7.43
2022-10-08T08:31:39.400Z,6.40
2022-10-08T08:34:12.807Z,7.45
2022-10-08T08:36:43.913Z,6.70
2022-10-08T08:39:19.758Z,6.93
2022-10-08T08:41:52.948Z,6.70
2022-10-08T08:44:39.254Z,6.60
2022-10-08T08:47:08.308Z,6.85
2022-10-08T08:49:49.821Z,7.35
2022-10-08T08:52:19.432Z,5.50
2022-10-08T08:54:49.562Z,5.63
2022-10-08T08:57:30.231Z,5.57
2022-10-08T09:00:03.751Z,5.90
2022-10-08T09:02:51.562Z,5.68
2022-10-08T09:05:20.204Z,6.45
2022-10-08T09:07:56.684Z,5.80
2022-10-08T09:10:39.209Z,5.82
2022-10-08T09:13:14.368Z,5.40
2022-10-08T09:15:43.005Z,4.82
2022-10-08T09:18:13.101Z,5.00
2022-10-08T09:20:40.788Z,4.22
2022-10-08T09:23:15.320Z,5.03
2022-10-08T09:25:44.540Z,4.93
2022-10-08T09:28:11.570Z,4.25
2022-10-08T09:30:41.468Z,4.25
2022-10-08T09:33:16.329Z,4.05
2022-10-08T09:35:44.963Z,3.97
2022-10-08T09:38:27.006Z,4.03
2022-10-08T09:41:20.349Z,4.00
2022-10-08T09:44:15.867Z,3.83
2022-10-08T09:46:43.198Z,4.20
2022-10-08T09:49:32.468Z,8.88
2022-10-08T09:52:05.857Z,4.72
2022-10-08T09:55:22.570Z,3.72
2022-10-08T09:58:00.475Z,4.07
2022-10-08T10:00:35.351Z,3.80
2022-10-08T10:03:05.646Z,3.88
2022-10-08T10:05:35.015Z,3.33
2022-10-08T10:08:02.362Z,3.65
2022-10-08T10:10:40.451Z,3.38
2022-10-08T10:13:27.964Z,3.45
2022-10-08T10:16:40.197Z,3.22
2022-10-08T10:19:15.736Z,3.42
2022-10-08T10:22:04.873Z,3.58
2022-10-08T10:24:50.293Z,4.20
2022-10-08T10:27:40.544Z,3.42
2022-10-08T10:30:17.136Z,3.95
2022-10-08T10:32:56.139Z,3.15
2022-10-08T10:35:28.427Z,3.17
2022-10-08T10:38:09.486Z,3.10
2022-10-08T10:40:42.455Z,3.20
2022-10-08T10:43:52.981Z,3.30
2022-10-08T10:46:25.254Z,2.60
2022-10-08T10:48:52.253Z,3.08
2022-10-08T10:51:50.553Z,2.83
2022-10-08T10:54:23.008Z,3.40
2022-10-08T10:56:56.969Z,2.80
2022-10-08T11:00:03.647Z,4.40
2022-10-08T11:02:42.177Z,3.38
2022-10-08T11:05:33.139Z,2.63
2022-10-08T11:08:30.557Z,3.28
2022-10-08T11:11:09.664Z,7.03
2022-10-08T11:13:55.260Z,9.98
2022-10-08T11:16:37.556Z,4.93
2022-10-08T11:19:11.635Z,4.90
2022-10-08T11:21:48.091Z,6.03
2022-10-08T11:24:23.956Z,4.65
2022-10-08T11:27:12.804Z,5.78
2022-10-08T11:29:52.231Z,4.43
2022-10-08T11:32:20.479Z,6.55
2022-10-08T11:35:00.950Z,5.80
2022-10-08T11:37:27.791Z,5.25
2022-10-08T11:40:10.550Z,4.40
2022-10-08T11:42:48.512Z,5.22
2022-10-08T11:45:25.819Z,5.03
2022-10-08T11:47:54.902Z,4.68
2022-10-08T11:50:32.245Z,4.57
2022-10-08T11:53:21.026Z,4.22
2022-10-08T11:55:57.163Z,4.20
2022-10-08T11:58:32.647Z,4.25
2022-10-08T12:01:07.891Z,4.20
2022-10-08T12:03:41.043Z,4.53
2022-10-08T12:06:35.891Z,3.70
2022-10-08T12:09:07.758Z,3.53
2022-10-08T12:11:43.392Z,3.53
2022-10-08T12:14:14.431Z,3.35
2022-10-08T12:16:47.593Z,3.50
2022-10-08T12:19:33.087Z,3.38
2022-10-08T12:22:02.065Z,2.80
2022-10-08T12:24:38.238Z,2.92
2022-10-08T12:27:17.762Z,3.40
2022-10-08T12:30:12.112Z,5.43
2022-10-08T12:32:42.273Z,8.55
2022-10-08T12:35:35.922Z,6.35
2022-10-08T12:38:13.775Z,3.10
2022-10-08T12:40:56.941Z,7.15
2022-10-08T12:43:51.635Z,6.25
2022-10-08T12:46:40.009Z,5.28
2022-10-08T12:49:25.169Z,2.72
2022-10-08T12:52:04.566Z,3.08
2022-10-08T12:54:32.985Z,3.65
2022-10-08T12:57:07.176Z,3.72
2022-10-08T12:59:34.235Z,3.53
2022-10-08T13:02:01.439Z,2.72
2022-10-08T13:04:33.990Z,2.60
2022-10-08T13:07:19.231Z,3.00
2022-10-08T13:09:46.225Z,3.78
2022-10-08T13:12:13.077Z,4.88
2022-10-08T13:14:40.462Z,3.65
2022-10-08T13:17:30.292Z,3.20
2022-10-08T13:20:17.019Z,5.18
2022-10-08T13:22:44.827Z,3.70
2022-10-08T13:25:35.269Z,4.03
2022-10-08T13:28:16.131Z,2.90
2022-10-08T13:30:46.953Z,3.47
2022-10-08T13:33:20.670Z,3.60
2022-10-08T13:35:52.333Z,3.70
2022-10-08T13:38:27.088Z,2.90
2022-10-08T13:40:58.762Z,2.90
2022-10-08T13:43:26.439Z,3.97
2022-10-08T13:45:53.385Z,4.72
2022-10-08T13:48:20.434Z,4.72
2022-10-08T13:50:50.282Z,10.55
2022-10-08T13:53:22.182Z,16.65
2022-10-08T13:55:50.463Z,4.75
2022-10-08T13:58:19.825Z,3.55
2022-10-08T14:00:47.892Z,3.30
2022-10-08T14:03:15.135Z,4.65
2022-10-08T14:05:45.423Z,5.57
2022-10-08T14:08:28.273Z,3.90
2022-10-08T14:10:58.307Z,4.88
2022-10-08T14:13:25.692Z,5.68
2022-10-08T14:15:52.741Z,3.97
2022-10-08T14:18:19.716Z,5.45
2022-10-08T14:20:50.632Z,9.38
2022-10-08T14:23:17.607Z,9.43
2022-10-08T14:25:44.490Z,9.13
2022-10-08T14:28:11.331Z,8.32
2022-10-08T14:30:38.121Z,6.25
2022-10-08T14:33:10.277Z,4.32
2022-10-08T14:35:38.188Z,4.10
2022-10-08T14:38:05.045Z,3.13
2022-10-08T14:40:31.969Z,3.58
2022-10-08T14:42:58.859Z,3.97
2022-10-08T14:45:26.025Z,4.93
2022-10-08T14:47:52.846Z,4.60
2022-10-08T14:50:19.778Z,7.65
2022-10-08T14:52:47.283Z,9.52
2022-10-08T14:55:14.854Z,8.27
2022-10-08T14:57:41.818Z,6.30
2022-10-08T15:00:09.197Z,6.40
2022-10-08T15:02:36.304Z,11.35
2022-10-08T15:05:03.319Z,25.33
2022-10-08T15:07:30.876Z,30.50
2022-10-08T15:09:57.934Z,19.25
2022-10-08T15:12:25.077Z,11.27
2022-10-08T15:14:51.883Z,10.02
2022-10-08T15:17:18.678Z,8.52
2022-10-08T15:19:45.628Z,8.10
2022-10-08T15:22:12.869Z,9.27
2022-10-08T15:24:39.814Z,9.95
2022-10-08T15:27:06.756Z,7.97
2022-10-08T15:29:33.561Z,8.07
2022-10-08T15:32:00.457Z,8.38
2022-10-08T15:34:27.437Z,8.38
2022-10-08T15:36:56.032Z,9.00
2022-10-08T15:39:22.993Z,11.88
2022-10-08T15:41:54.446Z,11.20
2022-10-08T15:47:02.566Z,17.52
2022-10-08T15:49:31.299Z,15.65
2022-10-08T15:51:58.640Z,16.33
2022-10-08T15:54:25.859Z,18.48
2022-10-08T15:56:52.685Z,19.58
2022-10-08T15:59:19.683Z,19.05
2022-10-08T16:01:46.539Z,17.23
2022-10-08T16:04:14.395Z,14.63
2022-10-08T16:06:47.797Z,17.02
2022-10-08T16:09:16.707Z,13.23
2022-10-08T16:11:44.482Z,15.02
2022-10-08T16:14:14.431Z,12.30
2022-10-08T16:16:42.551Z,17.05
2022-10-08T16:19:18.368Z,12.85
2022-10-08T16:21:47.435Z,10.32
2022-10-08T16:24:15.361Z,12.95
2022-10-08T16:26:43.586Z,15.90
2022-10-08T16:29:13.017Z,17.77
2022-10-08T16:31:41.720Z,21.27
2022-10-08T16:34:13.721Z,21.50
2022-10-08T16:36:40.975Z,18.00
2022-10-08T16:39:10.063Z,17.90
2022-10-08T16:41:38.014Z,17.67
2022-10-08T16:44:12.675Z,16.90
2022-10-08T16:46:42.632Z,16.52
2022-10-08T16:49:28.176Z,16.50
2022-10-08T16:52:05.544Z,19.15
2022-10-08T16:54:33.253Z,19.20
2022-10-08T16:57:00.870Z,19.27
2022-10-08T16:59:29.843Z,19.80
2022-10-08T17:01:59.684Z,20.05
2022-10-08T17:04:29.403Z,23.02
2022-10-08T17:06:56.816Z,21.45
2022-10-08T17:09:23.742Z,17.88
2022-10-08T17:11:50.725Z,13.98
2022-10-08T17:14:17.541Z,17.08
2022-10-08T17:16:48.966Z,17.00
2022-10-08T17:19:18.026Z,17.10
2022-10-08T17:21:45.161Z,17.10
2022-10-08T17:24:12.764Z,19.52
2022-10-08T17:26:40.332Z,19.63
2022-10-08T17:29:10.243Z,79.95
2022-10-08T17:31:38.151Z,243.25
2022-10-08T17:34:06.336Z,146.00
2022-10-08T17:36:36.331Z,76.82
2022-10-08T17:39:05.824Z,58.15
2022-10-08T17:41:37.953Z,65.07
2022-10-08T17:44:07.279Z,53.60
2022-10-08T17:46:39.932Z,43.10
2022-10-08T17:49:06.915Z,45.47
2022-10-08T17:51:34.435Z,41.30
2022-10-08T17:54:04.167Z,59.95
2022-10-08T17:56:31.636Z,53.58
2022-10-08T17:58:58.960Z,40.53
2022-10-08T18:01:29.918Z,28.60
2022-10-08T18:04:03.051Z,124.88
2022-10-08T18:06:31.290Z,101.32
2022-10-08T18:09:01.124Z,92.45
2022-10-08T18:11:30.677Z,77.10
2022-10-08T18:13:58.189Z,60.90
2022-10-08T18:16:28.064Z,56.90
2022-10-08T18:18:55.340Z,56.85
2022-10-08T18:21:22.565Z,61.38
2022-10-08T18:23:49.951Z,58.55
2022-10-08T18:26:20.932Z,56.90
2022-10-08T18:28:56.462Z,58.38
2022-10-08T18:31:26.907Z,53.97
2022-10-08T18:34:00.199Z,54.17
2022-10-08T18:36:30.260Z,46.10
2022-10-08T18:39:03.230Z,51.45
2022-10-08T18:41:32.927Z,51.17
2022-10-08T18:44:00.737Z,51.33
2022-10-08T18:46:28.537Z,53.85
2022-10-08T18:48:55.974Z,52.55
2022-10-08T18:51:25.827Z,54.92
2022-10-08T18:53:55.050Z,53.80
2022-10-08T18:56:28.733Z,51.35
2022-10-08T18:59:01.755Z,55.03
2022-10-08T19:01:34.665Z,52.88
2022-10-08T19:04:04.418Z,55.17
2022-10-08T19:06:35.013Z,57.33
2022-10-08T19:09:03.282Z,59.33
2022-10-08T19:11:33.735Z,64.05
2022-10-08T19:14:01.686Z,62.08
2022-10-08T19:16:29.141Z,62.95
2022-10-08T19:18:57.179Z,62.45
2022-10-08T19:21:26.463Z,61.50
2022-10-08T19:23:54.152Z,62.15
2022-10-08T19:26:21.017Z,64.85
2022-10-08T19:28:50.969Z,61.40
2022-10-08T19:31:19.413Z,67.55
2022-10-08T19:33:58.147Z,63.75
2022-10-08T19:36:27.204Z,64.03
2022-10-08T19:38:59.364Z,61.58
2022-10-08T19:41:27.681Z,59.10
2022-10-08T19:43:56.448Z,60.00
2022-10-08T19:46:24.434Z,55.33
2022-10-08T19:48:56.501Z,53.42
2022-10-08T19:51:24.792Z,52.83
2022-10-08T19:53:52.288Z,52.40
2022-10-08T19:56:20.632Z,53.47
2022-10-08T19:58:49.690Z,51.17
2022-10-08T20:01:20.324Z,50.97
2022-10-08T20:03:47.669Z,43.83
2022-10-08T20:06:21.700Z,41.65
2022-10-08T20:08:50.283Z,46.30
2022-10-08T20:11:19.226Z,49.30
2022-10-08T20:13:48.039Z,47.55
2022-10-08T20:16:18.081Z,49.30
2022-10-08T20:18:53.365Z,49.70
2022-10-08T20:21:21.480Z,47.00
2022-10-08T20:23:48.715Z,45.58
2022-10-08T20:26:23.127Z,45.58
2022-10-08T20:28:53.118Z,40.42
2022-10-08T20:31:27.184Z,34.42
2022-10-08T20:33:59.027Z,34.28
2022-10-08T20:38:53.722Z,30.42
2022-10-08T20:41:23.487Z,31.30
2022-10-08T20:43:55.933Z,25.70
2022-10-08T20:46:23.015Z,25.63
2022-10-08T20:48:49.877Z,25.80
2022-10-08T20:51:20.033Z,25.20
2022-10-08T20:53:55.409Z,26.92
2022-10-08T20:56:22.635Z,26.15
2022-10-08T20:58:49.775Z,24.55
2022-10-08T21:01:24.779Z,26.23
2022-10-08T21:03:52.791Z,26.73
2022-10-08T21:06:22.437Z,29.55
2022-10-08T21:08:51.396Z,28.63
2022-10-08T21:11:21.005Z,28.65
2022-10-08T21:13:48.507Z,30.48
2022-10-08T21:16:18.080Z,30.30
2022-10-08T21:18:49.495Z,31.40
2022-10-08T21:21:16.922Z,29.17
2022-10-08T21:23:45.206Z,30.88
2022-10-08T21:26:15.095Z,29.65
2022-10-08T21:28:44.170Z,30.70
2022-10-08T21:31:11.915Z,30.52
2022-10-08T21:33:40.742Z,31.60
2022-10-08T21:36:11.993Z,31.67
2022-10-08T21:38:38.858Z,29.55
2022-10-08T21:41:12.530Z,28.85
2022-10-08T21:43:40.920Z,23.45
2022-10-08T21:46:10.397Z,21.02
2022-10-08T21:48:38.255Z,15.82
2022-10-08T21:51:08.426Z,18.13
2022-10-08T21:53:37.514Z,20.55
2022-10-08T21:56:10.672Z,23.15
2022-10-08T21:58:39.904Z,21.80
2022-10-08T22:01:08.630Z,17.80
2022-10-08T22:03:35.491Z,14.75
2022-10-08T22:06:04.638Z,13.30
2022-10-08T22:08:31.838Z,14.90
2022-10-08T22:10:58.829Z,13.80
2022-10-08T22:13:25.783Z,13.68
2022-10-08T22:15:57.123Z,13.57
2022-10-08T22:18:25.326Z,13.68
2022-10-08T22:20:52.959Z,13.23
2022-10-08T22:23:20.635Z,11.75
2022-10-08T22:26:01.522Z,12.57
2022-10-08T22:28:29.018Z,12.73
2022-10-08T22:30:58.799Z,13.88
2022-10-08T22:33:25.960Z,13.43
2022-10-08T22:35:52.909Z,15.05
2022-10-08T22:38:19.728Z,15.13
2022-10-08T22:40:46.583Z,14.68
2022-10-08T22:43:13.390Z,13.38
2022-10-08T22:45:41.560Z,12.27
2022-10-08T22:48:08.500Z,12.50
2022-10-08T22:50:36.099Z,12.30
2022-10-08T22:53:02.872Z,12.10
2022-10-08T22:55:29.781Z,12.15
2022-10-08T22:57:56.738Z,13.63
2022-10-08T23:00:23.655Z,13.85
2022-10-08T23:02:50.817Z,14.75
2022-10-08T23:05:17.854Z,15.90
2022-10-08T23:07:44.675Z,14.30
2022-10-08T23:10:11.496Z,15.73
2022-10-08T23:12:38.295Z,15.13
2022-10-08T23:15:05.524Z,16.13
2022-10-08T23:17:32.418Z,16.70
2022-10-08T23:19:59.277Z,16.05
2022-10-08T23:22:26.190Z,15.38
2022-10-08T23:24:53.078Z,16.33
2022-10-08T23:27:20.305Z,15.98
2022-10-08T23:29:47.310Z,13.77
2022-10-08T23:32:14.133Z,14.80
2022-10-08T23:34:41.029Z,15.27
2022-10-08T23:37:07.874Z,13.65
2022-10-08T23:39:34.730Z,12.10
2022-10-08T23:42:01.512Z,11.43
2022-10-08T23:44:28.327Z,11.90
2022-10-08T23:46:55.136Z,10.95
2022-10-08T23:49:21.873Z,13.43
2022-10-08T23:51:48.818Z,11.65
2022-10-08T23:54:15.597Z,12.45
2022-10-08T23:56:42.461Z,13.30
2022-10-08T23:59:09.505Z,9.95
